IWG007 LEAS-LXGB
Flight info
| Callsign | IWG007 |
|---|---|
| Flight time | 1h 14m |
| Altitude | 39000 |
| Route | VES OMESI M30 MELON Z180 SVL MONTE BRIKE |
| Aircraft | A20N/M-SDE2E3FGHIJ1RWXY/LB1 |
Departure
| Time | 2026-05-06 09:32 |
|---|---|
| Airport | Asturias Airport (LEAS) |
Arrival
| Time | 2026-05-06 10:47 |
|---|---|
| Airport | Gibraltar Airport (LXGB) |
| Time | Latitude | Longitude | Altitude | Speed | Heading |
|---|---|---|---|---|---|
| 2026-05-06 09:27 | 43.56027 | -6.03103 | 418 ft | 0 kts | 114° |
| 2026-05-06 09:29 | 43.56026 | -6.03099 | 417 ft | 2 kts | 114° |
| 2026-05-06 09:29 | 43.56015 | -6.03065 | 423 ft | 7 kts | 112° |
| 2026-05-06 09:30 | 43.55996 | -6.02979 | 426 ft | 11 kts | 98° |
| 2026-05-06 09:30 | 43.56038 | -6.02881 | 417 ft | 14 kts | 71° |
| 2026-05-06 09:30 | 43.56023 | -6.02738 | 423 ft | 16 kts | 105° |
| 2026-05-06 09:30 | 43.55993 | -6.02590 | 417 ft | 14 kts | 107° |
| 2026-05-06 09:31 | 43.55961 | -6.02453 | 418 ft | 16 kts | 109° |
| 2026-05-06 09:31 | 43.55963 | -6.02304 | 420 ft | 17 kts | 64° |
| 2026-05-06 09:31 | 43.56032 | -6.02199 | 423 ft | 10 kts | 4° |
| 2026-05-06 09:31 | 43.56068 | -6.02250 | 420 ft | 0 kts | 291° |
| 2026-05-06 09:32 | 43.56090 | -6.02334 | 419 ft | 39 kts | 288° |
| 2026-05-06 09:32 | 43.56252 | -6.03034 | 428 ft | 111 kts | 288° |
| 2026-05-06 09:32 | 43.56562 | -6.04287 | 565 ft | 152 kts | 288° |
| 2026-05-06 09:32 | 43.56948 | -6.05680 | 1176 ft | 162 kts | 290° |
| 2026-05-06 09:33 | 43.57390 | -6.07201 | 1690 ft | 182 kts | 291° |
| 2026-05-06 09:33 | 43.57884 | -6.08842 | 2403 ft | 186 kts | 291° |
| 2026-05-06 09:33 | 43.58486 | -6.10436 | 3177 ft | 190 kts | 306° |
| 2026-05-06 09:33 | 43.59489 | -6.11641 | 3966 ft | 195 kts | 330° |
| 2026-05-06 09:34 | 43.60788 | -6.12102 | 4878 ft | 193 kts | 358° |
| 2026-05-06 09:34 | 43.62090 | -6.11686 | 5715 ft | 195 kts | 25° |
| 2026-05-06 09:34 | 43.63077 | -6.10397 | 6489 ft | 201 kts | 57° |
| 2026-05-06 09:34 | 43.63458 | -6.08542 | 7167 ft | 209 kts | 88° |
| 2026-05-06 09:35 | 43.63105 | -6.06577 | 7786 ft | 219 kts | 118° |
| 2026-05-06 09:35 | 43.62063 | -6.05018 | 8399 ft | 227 kts | 147° |
| 2026-05-06 09:35 | 43.60612 | -6.04098 | 9025 ft | 235 kts | 158° |
| 2026-05-06 09:35 | 43.59027 | -6.03239 | 9399 ft | 256 kts | 159° |
| 2026-05-06 09:36 | 43.57316 | -6.02269 | 9838 ft | 277 kts | 152° |
| 2026-05-06 09:36 | 43.55514 | -6.01123 | 10253 ft | 297 kts | 159° |
| 2026-05-06 09:36 | 43.53442 | -6.00368 | 10586 ft | 319 kts | 171° |
| 2026-05-06 09:36 | 43.51155 | -5.99901 | 10909 ft | 340 kts | 172° |
| 2026-05-06 09:37 | 43.48788 | -5.99434 | 11634 ft | 344 kts | 172° |
| 2026-05-06 09:37 | 43.46432 | -5.98981 | 12465 ft | 347 kts | 172° |
| 2026-05-06 09:37 | 43.44024 | -5.98527 | 13272 ft | 351 kts | 172° |
| 2026-05-06 09:37 | 43.41606 | -5.98074 | 14035 ft | 355 kts | 172° |
| 2026-05-06 09:38 | 43.39135 | -5.97614 | 14674 ft | 361 kts | 172° |
| 2026-05-06 09:38 | 43.36633 | -5.97148 | 15334 ft | 365 kts | 173° |
| 2026-05-06 09:38 | 43.34087 | -5.96675 | 15989 ft | 370 kts | 173° |
| 2026-05-06 09:38 | 43.31989 | -5.96285 | 16562 ft | 373 kts | 173° |
| 2026-05-06 09:39 | 43.29493 | -5.95822 | 17195 ft | 377 kts | 173° |
| 2026-05-06 09:39 | 43.26877 | -5.95336 | 17847 ft | 381 kts | 173° |
| 2026-05-06 09:39 | 43.24228 | -5.94845 | 18478 ft | 385 kts | 173° |
| 2026-05-06 09:39 | 43.21563 | -5.94351 | 19050 ft | 389 kts | 173° |
| 2026-05-06 09:40 | 43.18863 | -5.93852 | 19624 ft | 392 kts | 173° |
| 2026-05-06 09:40 | 43.16130 | -5.93346 | 20192 ft | 396 kts | 173° |
| 2026-05-06 09:40 | 43.10644 | -5.92333 | 21282 ft | 403 kts | 173° |
| 2026-05-06 09:41 | 43.07842 | -5.91816 | 21819 ft | 407 kts | 173° |
| 2026-05-06 09:41 | 43.05022 | -5.91297 | 22392 ft | 410 kts | 172° |
| 2026-05-06 09:41 | 43.02179 | -5.90774 | 22942 ft | 414 kts | 172° |
| 2026-05-06 09:41 | 42.99307 | -5.90245 | 23474 ft | 417 kts | 172° |
| 2026-05-06 09:42 | 42.96456 | -5.89721 | 23954 ft | 420 kts | 172° |
| 2026-05-06 09:42 | 42.93546 | -5.89187 | 24404 ft | 423 kts | 172° |
| 2026-05-06 09:42 | 42.90629 | -5.88651 | 24856 ft | 425 kts | 172° |
| 2026-05-06 09:42 | 42.87674 | -5.88109 | 25288 ft | 428 kts | 172° |
| 2026-05-06 09:43 | 42.84711 | -5.87567 | 25722 ft | 431 kts | 172° |
| 2026-05-06 09:43 | 42.81720 | -5.87020 | 26148 ft | 433 kts | 173° |
| 2026-05-06 09:43 | 42.78720 | -5.86472 | 26554 ft | 436 kts | 173° |
| 2026-05-06 09:43 | 42.75700 | -5.85921 | 26957 ft | 439 kts | 173° |
| 2026-05-06 09:44 | 42.72657 | -5.85367 | 27351 ft | 442 kts | 173° |
| 2026-05-06 09:44 | 42.69640 | -5.84817 | 27736 ft | 444 kts | 173° |
| 2026-05-06 09:44 | 42.66768 | -5.84294 | 28079 ft | 447 kts | 173° |
| 2026-05-06 09:44 | 42.63681 | -5.83733 | 28432 ft | 449 kts | 173° |
| 2026-05-06 09:45 | 42.60553 | -5.83165 | 28809 ft | 452 kts | 173° |
| 2026-05-06 09:45 | 42.57428 | -5.82598 | 29141 ft | 454 kts | 174° |
| 2026-05-06 09:45 | 42.54307 | -5.82031 | 29481 ft | 457 kts | 174° |
| 2026-05-06 09:45 | 42.51139 | -5.81456 | 29814 ft | 459 kts | 174° |
| 2026-05-06 09:46 | 42.47992 | -5.80887 | 30129 ft | 461 kts | 174° |
| 2026-05-06 09:46 | 42.44799 | -5.80310 | 30421 ft | 463 kts | 174° |
| 2026-05-06 09:46 | 42.41590 | -5.79730 | 30705 ft | 466 kts | 174° |
| 2026-05-06 09:46 | 42.38374 | -5.79150 | 30997 ft | 467 kts | 174° |
| 2026-05-06 09:47 | 42.35227 | -5.78582 | 31314 ft | 468 kts | 175° |
| 2026-05-06 09:47 | 42.32005 | -5.78001 | 31690 ft | 468 kts | 175° |
| 2026-05-06 09:47 | 42.28954 | -5.77450 | 32057 ft | 467 kts | 175° |
| 2026-05-06 09:47 | 42.25725 | -5.76866 | 32417 ft | 466 kts | 175° |
| 2026-05-06 09:48 | 42.22552 | -5.76292 | 32797 ft | 465 kts | 175° |
| 2026-05-06 09:48 | 42.19313 | -5.75708 | 33170 ft | 464 kts | 175° |
| 2026-05-06 09:48 | 42.16127 | -5.75136 | 33518 ft | 463 kts | 175° |
| 2026-05-06 09:48 | 42.12926 | -5.74561 | 33876 ft | 462 kts | 175° |
| 2026-05-06 09:49 | 42.09778 | -5.73997 | 34180 ft | 461 kts | 175° |
| 2026-05-06 09:49 | 42.06596 | -5.73428 | 34472 ft | 460 kts | 175° |
| 2026-05-06 09:49 | 42.03409 | -5.72859 | 34746 ft | 459 kts | 175° |
| 2026-05-06 09:49 | 42.00233 | -5.72292 | 35014 ft | 458 kts | 175° |
| 2026-05-06 09:50 | 41.97111 | -5.71735 | 35255 ft | 458 kts | 175° |
| 2026-05-06 09:50 | 41.93948 | -5.71173 | 35514 ft | 457 kts | 175° |
| 2026-05-06 09:50 | 41.90793 | -5.70614 | 35756 ft | 456 kts | 175° |
| 2026-05-06 09:50 | 41.87644 | -5.70058 | 35985 ft | 456 kts | 175° |
| 2026-05-06 09:51 | 41.84495 | -5.69502 | 36213 ft | 455 kts | 175° |
| 2026-05-06 09:51 | 41.81344 | -5.68946 | 36430 ft | 455 kts | 175° |
| 2026-05-06 09:51 | 41.78208 | -5.68392 | 36640 ft | 454 kts | 176° |
| 2026-05-06 09:51 | 41.75110 | -5.67846 | 36842 ft | 454 kts | 176° |
| 2026-05-06 09:52 | 41.71982 | -5.67295 | 37037 ft | 453 kts | 176° |
| 2026-05-06 09:52 | 41.68846 | -5.66743 | 37234 ft | 453 kts | 176° |
| 2026-05-06 09:52 | 41.65940 | -5.66232 | 37410 ft | 452 kts | 176° |
| 2026-05-06 09:52 | 41.62817 | -5.65684 | 37596 ft | 452 kts | 176° |
| 2026-05-06 09:53 | 41.59701 | -5.65137 | 37768 ft | 451 kts | 176° |
| 2026-05-06 09:53 | 41.56585 | -5.64590 | 37938 ft | 451 kts | 176° |
| 2026-05-06 09:53 | 41.53497 | -5.64049 | 38099 ft | 451 kts | 176° |
| 2026-05-06 09:53 | 41.50391 | -5.63495 | 38255 ft | 451 kts | 175° |
| 2026-05-06 09:54 | 41.47274 | -5.62913 | 38402 ft | 451 kts | 175° |
| 2026-05-06 09:54 | 41.44167 | -5.62326 | 38551 ft | 450 kts | 175° |
| 2026-05-06 09:54 | 41.41117 | -5.61751 | 38682 ft | 450 kts | 175° |
| 2026-05-06 09:54 | 41.38010 | -5.61169 | 38784 ft | 450 kts | 175° |
| 2026-05-06 09:55 | 41.32061 | -5.60060 | 38962 ft | 450 kts | 175° |
| 2026-05-06 09:55 | 41.25818 | -5.58901 | 39012 ft | 449 kts | 175° |
| 2026-05-06 09:56 | 41.19668 | -5.57762 | 39015 ft | 449 kts | 176° |
| 2026-05-06 09:56 | 41.13467 | -5.56616 | 39015 ft | 449 kts | 176° |
| 2026-05-06 09:57 | 41.07571 | -5.55527 | 39017 ft | 449 kts | 176° |
| 2026-05-06 09:57 | 41.01358 | -5.54383 | 39017 ft | 449 kts | 176° |
| 2026-05-06 09:58 | 40.95164 | -5.53244 | 39028 ft | 450 kts | 176° |
| 2026-05-06 09:58 | 40.88994 | -5.52111 | 39020 ft | 450 kts | 176° |
| 2026-05-06 09:59 | 40.82967 | -5.51007 | 39018 ft | 450 kts | 176° |
| 2026-05-06 09:59 | 40.76820 | -5.49883 | 39014 ft | 450 kts | 176° |
| 2026-05-06 10:00 | 40.70633 | -5.48754 | 39017 ft | 450 kts | 176° |
| 2026-05-06 10:00 | 40.64662 | -5.47667 | 39009 ft | 450 kts | 176° |
| 2026-05-06 10:01 | 40.58456 | -5.46538 | 38992 ft | 447 kts | 176° |
| 2026-05-06 10:01 | 40.52317 | -5.45423 | 38990 ft | 446 kts | 176° |
| 2026-05-06 10:02 | 40.46150 | -5.44307 | 38991 ft | 447 kts | 176° |
| 2026-05-06 10:02 | 40.40045 | -5.43203 | 38992 ft | 446 kts | 176° |
| 2026-05-06 10:03 | 40.33888 | -5.42092 | 38988 ft | 445 kts | 176° |
| 2026-05-06 10:03 | 40.27960 | -5.41023 | 38985 ft | 445 kts | 176° |
| 2026-05-06 10:04 | 40.22873 | -5.40108 | 38987 ft | 444 kts | 177° |
| 2026-05-06 10:04 | 40.15725 | -5.38826 | 38991 ft | 445 kts | 177° |
| 2026-05-06 10:05 | 40.10587 | -5.37905 | 38986 ft | 445 kts | 177° |
| 2026-05-06 10:05 | 40.04487 | -5.36813 | 38985 ft | 445 kts | 177° |
| 2026-05-06 10:06 | 39.98339 | -5.35715 | 38984 ft | 445 kts | 177° |
| 2026-05-06 10:06 | 39.92214 | -5.34623 | 38978 ft | 446 kts | 177° |
| 2026-05-06 10:07 | 39.86057 | -5.33528 | 38989 ft | 446 kts | 177° |
| 2026-05-06 10:07 | 39.79931 | -5.32679 | 38982 ft | 442 kts | 184° |
| 2026-05-06 10:08 | 39.73888 | -5.33215 | 38987 ft | 434 kts | 195° |
| 2026-05-06 10:08 | 39.68073 | -5.35134 | 38984 ft | 430 kts | 201° |
| 2026-05-06 10:09 | 39.62497 | -5.37302 | 38966 ft | 428 kts | 201° |
| 2026-05-06 10:09 | 39.56805 | -5.39486 | 38972 ft | 428 kts | 201° |
| 2026-05-06 10:10 | 39.51097 | -5.41670 | 38972 ft | 429 kts | 201° |
| 2026-05-06 10:10 | 39.45383 | -5.43852 | 38968 ft | 427 kts | 201° |
| 2026-05-06 10:11 | 39.39665 | -5.46031 | 38973 ft | 427 kts | 201° |
| 2026-05-06 10:11 | 39.33988 | -5.48192 | 38971 ft | 427 kts | 201° |
| 2026-05-06 10:12 | 39.28468 | -5.50289 | 38973 ft | 426 kts | 201° |
| 2026-05-06 10:12 | 39.22771 | -5.52451 | 38971 ft | 426 kts | 201° |
| 2026-05-06 10:13 | 39.17122 | -5.54590 | 38972 ft | 425 kts | 201° |
| 2026-05-06 10:13 | 39.11467 | -5.56728 | 38975 ft | 425 kts | 201° |
| 2026-05-06 10:14 | 39.05811 | -5.58863 | 38970 ft | 425 kts | 201° |
| 2026-05-06 10:14 | 39.00149 | -5.60997 | 38970 ft | 424 kts | 201° |
| 2026-05-06 10:15 | 38.94463 | -5.63136 | 38970 ft | 424 kts | 201° |
| 2026-05-06 10:15 | 38.88800 | -5.65263 | 38969 ft | 424 kts | 201° |
| 2026-05-06 10:16 | 38.83174 | -5.67373 | 38968 ft | 424 kts | 201° |
| 2026-05-06 10:16 | 38.77517 | -5.69492 | 38968 ft | 423 kts | 201° |
| 2026-05-06 10:17 | 38.71877 | -5.71600 | 38962 ft | 423 kts | 201° |
| 2026-05-06 10:17 | 38.66380 | -5.73651 | 38962 ft | 423 kts | 201° |
| 2026-05-06 10:18 | 38.60749 | -5.75749 | 38964 ft | 422 kts | 201° |
| 2026-05-06 10:18 | 38.55121 | -5.77843 | 38966 ft | 422 kts | 201° |
| 2026-05-06 10:19 | 38.49454 | -5.79948 | 38968 ft | 422 kts | 201° |
| 2026-05-06 10:19 | 38.43841 | -5.82029 | 38967 ft | 422 kts | 201° |
| 2026-05-06 10:20 | 38.38485 | -5.84012 | 38969 ft | 422 kts | 201° |
| 2026-05-06 10:20 | 38.32711 | -5.86146 | 38967 ft | 421 kts | 201° |
| 2026-05-06 10:21 | 38.27279 | -5.88150 | 38965 ft | 421 kts | 201° |
| 2026-05-06 10:21 | 38.21689 | -5.90209 | 38965 ft | 420 kts | 201° |
| 2026-05-06 10:22 | 38.16049 | -5.92284 | 38972 ft | 420 kts | 201° |
| 2026-05-06 10:22 | 38.10444 | -5.94342 | 38969 ft | 420 kts | 201° |
| 2026-05-06 10:23 | 38.04864 | -5.96387 | 38955 ft | 419 kts | 201° |
| 2026-05-06 10:23 | 38.02055 | -5.97416 | 38725 ft | 420 kts | 201° |
| 2026-05-06 10:23 | 37.99239 | -5.98421 | 38146 ft | 422 kts | 199° |
| 2026-05-06 10:24 | 37.96288 | -5.98960 | 37334 ft | 433 kts | 188° |
| 2026-05-06 10:24 | 37.93317 | -5.98800 | 36473 ft | 446 kts | 178° |
| 2026-05-06 10:24 | 37.90260 | -5.97877 | 35672 ft | 457 kts | 168° |
| 2026-05-06 10:24 | 37.87256 | -5.96481 | 34962 ft | 458 kts | 167° |
| 2026-05-06 10:25 | 37.84259 | -5.95086 | 34231 ft | 458 kts | 168° |
| 2026-05-06 10:25 | 37.81296 | -5.93720 | 33427 ft | 458 kts | 168° |
| 2026-05-06 10:25 | 37.78293 | -5.92345 | 32655 ft | 456 kts | 168° |
| 2026-05-06 10:25 | 37.75303 | -5.90981 | 31869 ft | 456 kts | 167° |
| 2026-05-06 10:26 | 37.72338 | -5.89631 | 31114 ft | 456 kts | 167° |
| 2026-05-06 10:26 | 37.69367 | -5.88277 | 30604 ft | 450 kts | 167° |
| 2026-05-06 10:26 | 37.66663 | -5.87046 | 30077 ft | 446 kts | 167° |
| 2026-05-06 10:26 | 37.63748 | -5.85721 | 29459 ft | 442 kts | 167° |
| 2026-05-06 10:27 | 37.60869 | -5.84415 | 28890 ft | 437 kts | 167° |
| 2026-05-06 10:27 | 37.58059 | -5.83140 | 28344 ft | 432 kts | 167° |
| 2026-05-06 10:27 | 37.55246 | -5.81866 | 27785 ft | 427 kts | 167° |
| 2026-05-06 10:27 | 37.52441 | -5.80597 | 27236 ft | 423 kts | 167° |
| 2026-05-06 10:28 | 37.49676 | -5.79348 | 26685 ft | 420 kts | 167° |
| 2026-05-06 10:28 | 37.46959 | -5.78121 | 26151 ft | 417 kts | 166° |
| 2026-05-06 10:28 | 37.44234 | -5.76883 | 25604 ft | 415 kts | 165° |
| 2026-05-06 10:28 | 37.41599 | -5.75370 | 25059 ft | 418 kts | 157° |
| 2026-05-06 10:29 | 37.39087 | -5.73525 | 24467 ft | 419 kts | 154° |
| 2026-05-06 10:29 | 37.36606 | -5.71668 | 23935 ft | 417 kts | 154° |
| 2026-05-06 10:29 | 37.34113 | -5.69810 | 23344 ft | 416 kts | 154° |
| 2026-05-06 10:29 | 37.31833 | -5.68116 | 22836 ft | 413 kts | 154° |
| 2026-05-06 10:30 | 37.29370 | -5.66287 | 22287 ft | 409 kts | 154° |
| 2026-05-06 10:30 | 37.26927 | -5.64475 | 21738 ft | 406 kts | 154° |
| 2026-05-06 10:30 | 37.24508 | -5.62684 | 21201 ft | 403 kts | 154° |
| 2026-05-06 10:30 | 37.22099 | -5.60902 | 20650 ft | 400 kts | 154° |
| 2026-05-06 10:31 | 37.19709 | -5.59135 | 20103 ft | 398 kts | 154° |
| 2026-05-06 10:31 | 37.17334 | -5.57380 | 19563 ft | 395 kts | 154° |
| 2026-05-06 10:31 | 37.14962 | -5.55630 | 19011 ft | 394 kts | 153° |
| 2026-05-06 10:31 | 37.12605 | -5.53893 | 18452 ft | 392 kts | 153° |
| 2026-05-06 10:32 | 37.10276 | -5.52177 | 17893 ft | 390 kts | 153° |
| 2026-05-06 10:32 | 37.08221 | -5.50674 | 17415 ft | 386 kts | 155° |
| 2026-05-06 10:32 | 37.05789 | -5.49334 | 16875 ft | 378 kts | 166° |
| 2026-05-06 10:32 | 37.03254 | -5.48556 | 16354 ft | 371 kts | 175° |
| 2026-05-06 10:33 | 37.00701 | -5.48213 | 15821 ft | 366 kts | 178° |
| 2026-05-06 10:33 | 36.98398 | -5.47922 | 15349 ft | 364 kts | 178° |
| 2026-05-06 10:33 | 36.95882 | -5.47596 | 14837 ft | 362 kts | 178° |
| 2026-05-06 10:33 | 36.93412 | -5.47272 | 14329 ft | 360 kts | 177° |
| 2026-05-06 10:34 | 36.90921 | -5.46944 | 13819 ft | 358 kts | 177° |
| 2026-05-06 10:34 | 36.88460 | -5.46619 | 13284 ft | 356 kts | 177° |
| 2026-05-06 10:34 | 36.86176 | -5.46318 | 12816 ft | 354 kts | 177° |
| 2026-05-06 10:34 | 36.83756 | -5.45999 | 12314 ft | 351 kts | 177° |
| 2026-05-06 10:35 | 36.81322 | -5.45683 | 11817 ft | 348 kts | 176° |
| 2026-05-06 10:35 | 36.78932 | -5.45372 | 11323 ft | 347 kts | 176° |
| 2026-05-06 10:35 | 36.76535 | -5.45059 | 10836 ft | 346 kts | 176° |
| 2026-05-06 10:35 | 36.74130 | -5.44744 | 10369 ft | 343 kts | 176° |
| 2026-05-06 10:36 | 36.71818 | -5.44439 | 10235 ft | 331 kts | 176° |
| 2026-05-06 10:36 | 36.69557 | -5.44140 | 10127 ft | 319 kts | 176° |
| 2026-05-06 10:36 | 36.67375 | -5.43852 | 10014 ft | 307 kts | 176° |
| 2026-05-06 10:36 | 36.65456 | -5.43599 | 9853 ft | 299 kts | 176° |
| 2026-05-06 10:37 | 36.63395 | -5.43330 | 9489 ft | 298 kts | 176° |
| 2026-05-06 10:37 | 36.61329 | -5.43061 | 9121 ft | 297 kts | 176° |
| 2026-05-06 10:37 | 36.59301 | -5.42797 | 8747 ft | 295 kts | 176° |
| 2026-05-06 10:37 | 36.57259 | -5.42529 | 8331 ft | 294 kts | 176° |
| 2026-05-06 10:38 | 36.55217 | -5.42263 | 7956 ft | 293 kts | 176° |
| 2026-05-06 10:38 | 36.53191 | -5.42002 | 7571 ft | 292 kts | 176° |
| 2026-05-06 10:38 | 36.51198 | -5.41704 | 7184 ft | 291 kts | 172° |
| 2026-05-06 10:38 | 36.49242 | -5.41039 | 6785 ft | 293 kts | 160° |
| 2026-05-06 10:39 | 36.47358 | -5.40058 | 6496 ft | 292 kts | 158° |
| 2026-05-06 10:39 | 36.45542 | -5.39123 | 6174 ft | 292 kts | 159° |
| 2026-05-06 10:39 | 36.43674 | -5.38167 | 5910 ft | 288 kts | 159° |
| 2026-05-06 10:39 | 36.41842 | -5.37234 | 5584 ft | 288 kts | 159° |
| 2026-05-06 10:40 | 36.39994 | -5.36289 | 5259 ft | 288 kts | 159° |
| 2026-05-06 10:40 | 36.38118 | -5.35337 | 5039 ft | 283 kts | 159° |
| 2026-05-06 10:40 | 36.36360 | -5.34433 | 4999 ft | 271 kts | 158° |
| 2026-05-06 10:40 | 36.34770 | -5.33608 | 4993 ft | 269 kts | 159° |
| 2026-05-06 10:41 | 36.33003 | -5.32706 | 4999 ft | 283 kts | 159° |
| 2026-05-06 10:41 | 36.31274 | -5.31832 | 4999 ft | 284 kts | 159° |
| 2026-05-06 10:41 | 36.29492 | -5.30915 | 4830 ft | 275 kts | 157° |
| 2026-05-06 10:41 | 36.27756 | -5.29821 | 4198 ft | 282 kts | 151° |
| 2026-05-06 10:42 | 36.26111 | -5.28498 | 3689 ft | 280 kts | 145° |
| 2026-05-06 10:42 | 36.24679 | -5.27055 | 3420 ft | 264 kts | 139° |
| 2026-05-06 10:42 | 36.23410 | -5.25453 | 3123 ft | 251 kts | 132° |
| 2026-05-06 10:42 | 36.22373 | -5.23827 | 2851 ft | 237 kts | 129° |
| 2026-05-06 10:43 | 36.21386 | -5.22282 | 2631 ft | 219 kts | 133° |
| 2026-05-06 10:43 | 36.20337 | -5.21076 | 2435 ft | 191 kts | 150° |
| 2026-05-06 10:43 | 36.19227 | -5.20452 | 2349 ft | 164 kts | 171° |
| 2026-05-06 10:44 | 36.17160 | -5.20874 | 1906 ft | 148 kts | 218° |
| 2026-05-06 10:44 | 36.16440 | -5.21705 | 1671 ft | 139 kts | 235° |
| 2026-05-06 10:44 | 36.15941 | -5.22678 | 1543 ft | 131 kts | 247° |
| 2026-05-06 10:44 | 36.15658 | -5.23740 | 1414 ft | 129 kts | 260° |
| 2026-05-06 10:45 | 36.15560 | -5.24807 | 1299 ft | 124 kts | 266° |
| 2026-05-06 10:45 | 36.15488 | -5.25878 | 1161 ft | 123 kts | 265° |
| 2026-05-06 10:45 | 36.15417 | -5.26956 | 1073 ft | 127 kts | 265° |
| 2026-05-06 10:45 | 36.15332 | -5.28051 | 1005 ft | 128 kts | 266° |
| 2026-05-06 10:46 | 36.15281 | -5.29137 | 1012 ft | 127 kts | 265° |
| 2026-05-06 10:46 | 36.15270 | -5.30165 | 897 ft | 133 kts | 270° |
| 2026-05-06 10:46 | 36.15273 | -5.31319 | 532 ft | 138 kts | 264° |
| 2026-05-06 10:46 | 36.15221 | -5.32513 | 246 ft | 135 kts | 263° |
| 2026-05-06 10:47 | 36.15174 | -5.33616 | 96 ft | 126 kts | 261° |
| 2026-05-06 10:47 | 36.15127 | -5.34628 | 20 ft | 81 kts | 267° |
| 2026-05-06 10:47 | 36.15138 | -5.34979 | 20 ft | 28 kts | 306° |
| 2026-05-06 10:47 | 36.15100 | -5.34993 | 20 ft | 15 kts | 85° |
| 2026-05-06 10:48 | 36.15114 | -5.34853 | 23 ft | 18 kts | 82° |
| 2026-05-06 10:48 | 36.15151 | -5.34693 | 18 ft | 20 kts | 41° |
| 2026-05-06 10:48 | 36.15268 | -5.34673 | 18 ft | 9 kts | 360° |
| 2026-05-06 10:48 | 36.15298 | -5.34674 | 18 ft | 0 kts | 357° |